This is the latest recevied weather packets stored in our database for station/object 5B4ALR-13. If no packets are shown the sender has not sent any weather packets the latest 10 day(s).
| Time | Temp. | Humidity | Pressure | Rain* | Wind** | Luminosity | Snow |
|---|---|---|---|---|---|---|---|
| 1778164268 | 23.33° C | 47% | 1018.1 hPa | 0 mm | - | - | - |
| 1778163668 | 23.33° C | 47% | 1018.2 hPa | 0 mm | - | - | - |
| 1778163069 | 23.89° C | 46% | 1018.1 hPa | 0 mm | - | - | - |
| 1778162468 | 23.89° C | 46% | 1018.2 hPa | 0 mm | - | - | - |
| 1778161869 | 23.89° C | 46% | 1018.2 hPa | 0 mm | - | - | - |
| 1778161268 | 24.44° C | 46% | 1018.4 hPa | 0 mm | - | - | - |
| 1778160670 | 23.89° C | 47% | 1018.3 hPa | 0 mm | - | - | - |
| 1778160075 | 23.33° C | 47% | 1018.4 hPa | 0 mm | - | - | - |
| 1778159468 | 23.33° C | 47% | 1018.5 hPa | 0 mm | - | - | - |
| 1778158868 | 23.89° C | 47% | 1018.5 hPa | 0 mm | - | - | - |
| 1778158268 | 23.89° C | 45% | 1018.6 hPa | 0 mm | - | - | - |
| 1778157673 | 23.89° C | 46% | 1018.7 hPa | 0 mm | - | - | - |
| 1778157068 | 22.78° C | 50% | 1018.8 hPa | 0 mm | - | - | - |
| 1778156471 | 23.33° C | 47% | 1018.9 hPa | 0 mm | - | - | - |
| 1778155868 | 23.89° C | 45% | 1019 hPa | 0 mm | - | - | - |
| 1778155268 | 23.89° C | 46% | 1019 hPa | 0 mm | - | - | - |
| 1778154668 | 23.89° C | 48% | 1019 hPa | 0 mm | - | - | - |
| 1778154068 | 23.33° C | 51% | 1019.2 hPa | 0 mm | - | - | - |
| 1778153468 | 23.33° C | 52% | 1019.4 hPa | 0 mm | - | - | - |
| 1778152868 | 22.78° C | 53% | 1019.3 hPa | 0 mm | - | - | - |
| 1778152268 | 22.78° C | 50% | 1019.3 hPa | 0 mm | - | - | - |
| 1778151668 | 22.78° C | 50% | 1019.3 hPa | 0 mm | - | - | - |
| 1778151068 | 22.22° C | 53% | 1019.4 hPa | 0 mm | - | - | - |
| 1778150468 | 22.22° C | 52% | 1019.3 hPa | 0 mm | - | - | - |
| 1778149870 | 22.78° C | 50% | 1019.4 hPa | 0 mm | - | - | - |
* Rain latest hour (hover to see other rain measurements)
** Current wind speed in m/s (hover to see current wind gust speed)